createdAt,value
2022-10-10T00:02:39.391Z,6.47
2022-10-10T00:07:38.101Z,5.53
2022-10-10T00:12:36.805Z,4.63
2022-10-10T00:17:36.932Z,5.43
2022-10-10T00:22:35.691Z,4.63
2022-10-10T00:27:34.596Z,5.28
2022-10-10T00:32:33.484Z,4.78
2022-10-10T00:37:33.637Z,5.53
2022-10-10T00:42:32.300Z,5.90
2022-10-10T00:47:30.981Z,5.20
2022-10-10T00:52:29.738Z,5.53
2022-10-10T00:57:29.909Z,6.95
2022-10-10T01:02:28.616Z,6.07
2022-10-10T01:07:31.032Z,5.68
2022-10-10T01:12:39.792Z,6.10
2022-10-10T01:17:45.452Z,5.93
2022-10-10T01:23:00.024Z,6.03
2022-10-10T01:28:03.550Z,6.00
2022-10-10T01:33:09.754Z,6.47
2022-10-10T01:38:21.688Z,4.93
2022-10-10T01:43:20.549Z,6.23
2022-10-10T01:48:23.984Z,4.63
2022-10-10T01:53:28.710Z,5.43
2022-10-10T01:58:48.630Z,5.10
2022-10-10T02:03:58.253Z,5.25
2022-10-10T02:09:02.381Z,5.85
2022-10-10T02:14:09.813Z,4.65
2022-10-10T02:19:14.229Z,5.90
2022-10-10T02:24:15.231Z,7.03
2022-10-10T02:29:19.540Z,5.72
2022-10-10T02:34:24.378Z,4.95
2022-10-10T02:39:28.029Z,5.22
2022-10-10T02:44:28.016Z,4.93
2022-10-10T02:49:30.194Z,5.30
2022-10-10T02:54:29.482Z,5.50
2022-10-10T02:59:28.153Z,5.25
2022-10-10T03:04:28.939Z,5.70
2022-10-10T03:09:27.780Z,5.35
2022-10-10T03:14:26.677Z,4.97
2022-10-10T03:19:25.608Z,5.05
2022-10-10T03:24:25.775Z,4.63
2022-10-10T03:29:24.554Z,4.97
2022-10-10T03:34:23.336Z,5.47
2022-10-10T03:39:22.056Z,4.22
2022-10-10T03:44:22.169Z,4.80
2022-10-10T03:49:21.244Z,4.60
2022-10-10T03:54:19.981Z,4.88
2022-10-10T03:59:18.749Z,4.10
2022-10-10T04:04:22.159Z,4.35
2022-10-10T04:09:21.115Z,3.40
2022-10-10T04:14:19.845Z,4.93
2022-10-10T04:19:20.016Z,4.63
2022-10-10T04:24:18.790Z,3.90
2022-10-10T04:29:17.477Z,3.65
2022-10-10T04:34:16.386Z,4.50
2022-10-10T04:39:16.438Z,2.97
2022-10-10T04:44:15.138Z,4.00
2022-10-10T04:49:13.961Z,3.92
2022-10-10T04:54:13.414Z,3.90
2022-10-10T04:59:13.587Z,3.97
2022-10-10T05:04:13.220Z,5.18
2022-10-10T05:09:12.319Z,3.80
2022-10-10T05:14:11.044Z,3.78
2022-10-10T05:19:11.063Z,4.00
2022-10-10T05:24:09.841Z,4.05
2022-10-10T05:29:08.623Z,2.67
2022-10-10T05:34:07.327Z,3.53
2022-10-10T05:39:07.609Z,3.10
2022-10-10T05:44:06.381Z,4.65
2022-10-10T05:49:05.162Z,3.65
2022-10-10T05:54:05.267Z,3.10
2022-10-10T05:59:05.918Z,3.15
2022-10-10T06:04:04.797Z,2.97
2022-10-10T06:09:03.487Z,3.42
2022-10-10T06:14:02.374Z,2.60
2022-10-10T06:19:02.510Z,3.40
2022-10-10T06:24:01.565Z,4.38
2022-10-10T06:29:00.429Z,3.15
2022-10-10T06:33:59.158Z,2.70
2022-10-10T06:38:59.690Z,2.60
2022-10-10T06:43:58.933Z,5.70
2022-10-10T06:48:57.873Z,2.55
2022-10-10T06:54:00.354Z,2.75
2022-10-10T06:58:59.234Z,2.50
2022-10-10T07:03:57.977Z,2.63
2022-10-10T07:08:58.221Z,2.33
2022-10-10T07:13:58.376Z,1.70
2022-10-10T07:18:57.087Z,2.75
2022-10-10T07:23:55.791Z,3.00
2022-10-10T07:28:54.521Z,2.40
2022-10-10T07:33:54.595Z,2.45
2022-10-10T07:38:54.844Z,1.73
2022-10-10T07:43:56.228Z,1.63
2022-10-10T07:48:56.839Z,1.95
2022-10-10T07:53:56.675Z,2.50
2022-10-10T07:58:55.547Z,1.65
2022-10-10T08:03:56.375Z,1.65
2022-10-10T08:08:56.521Z,1.77
2022-10-10T08:13:55.272Z,1.58
2022-10-10T08:18:54.020Z,2.50
2022-10-10T08:23:52.767Z,2.00
2022-10-10T08:28:52.955Z,1.60
2022-10-10T08:33:53.096Z,2.38
2022-10-10T08:38:56.101Z,2.38
2022-10-10T08:44:01.119Z,2.20
2022-10-10T08:49:13.959Z,1.52
2022-10-10T08:54:16.162Z,2.50
2022-10-10T08:59:21.975Z,1.92
2022-10-10T09:04:21.353Z,1.98
2022-10-10T09:09:29.943Z,1.63
2022-10-10T09:14:38.901Z,1.88
2022-10-10T09:19:51.019Z,1.92
2022-10-10T09:29:55.911Z,1.50
2022-10-10T09:35:00.417Z,1.60
2022-10-10T09:40:04.038Z,1.95
2022-10-10T09:45:05.533Z,2.03
2022-10-10T09:50:05.221Z,1.20
2022-10-10T09:55:07.415Z,1.20
2022-10-10T10:00:34.075Z,1.70
2022-10-10T10:05:33.045Z,1.60
2022-10-10T10:10:36.876Z,1.50
2022-10-10T10:15:37.053Z,1.88
2022-10-10T10:20:38.593Z,1.83
2022-10-10T10:25:41.617Z,1.73
2022-10-10T10:30:42.800Z,1.48
2022-10-10T10:35:47.414Z,1.42
2022-10-10T10:40:57.589Z,1.38
2022-10-10T10:46:06.602Z,1.70
2022-10-10T10:51:16.258Z,1.30
2022-10-10T10:56:25.764Z,0.85
2022-10-10T11:01:55.130Z,2.70
2022-10-10T11:07:18.365Z,2.55
2022-10-10T11:12:39.144Z,2.65
2022-10-10T11:17:43.604Z,2.30
2022-10-10T11:22:48.500Z,1.88
2022-10-10T11:27:51.665Z,1.70
2022-10-10T11:32:55.301Z,1.83
2022-10-10T11:38:00.546Z,1.40
2022-10-10T11:43:05.892Z,1.67
2022-10-10T11:48:18.441Z,2.17
2022-10-10T11:53:23.802Z,2.78
2022-10-10T11:58:32.550Z,1.70
2022-10-10T12:03:32.969Z,2.10
2022-10-10T12:13:39.765Z,1.38
2022-10-10T12:18:46.431Z,1.80
2022-10-10T12:23:48.625Z,1.77
2022-10-10T12:29:03.251Z,2.08
2022-10-10T12:34:41.622Z,1.60
2022-10-10T12:40:00.463Z,2.00
2022-10-10T12:44:59.265Z,1.77
2022-10-10T12:50:01.415Z,1.70
2022-10-10T12:55:06.994Z,2.05
2022-10-10T13:00:15.465Z,1.65
2022-10-10T13:05:20.456Z,2.72
2022-10-10T13:10:27.804Z,2.60
2022-10-10T13:15:27.116Z,2.65
2022-10-10T13:20:35.104Z,2.75
2022-10-10T13:25:34.927Z,3.83
2022-10-10T13:30:33.760Z,3.05
2022-10-10T13:35:33.981Z,2.28
2022-10-10T13:40:32.836Z,1.85
2022-10-10T13:45:40.671Z,2.88
2022-10-10T13:51:03.500Z,2.58
2022-10-10T13:56:08.064Z,3.15
2022-10-10T14:01:07.321Z,2.80
2022-10-10T14:06:10.743Z,2.92
2022-10-10T14:11:15.837Z,3.30
2022-10-10T14:16:24.835Z,3.00
2022-10-10T14:21:24.911Z,2.60
2022-10-10T14:26:23.827Z,2.10
2022-10-10T14:31:22.593Z,3.13
2022-10-10T14:36:21.603Z,2.95
2022-10-10T14:41:21.768Z,2.92
2022-10-10T14:46:21.503Z,4.28
2022-10-10T14:51:34.955Z,3.88
2022-10-10T14:57:07.774Z,5.75
2022-10-10T15:01:54.315Z,3.58
2022-10-10T15:07:11.742Z,2.67
2022-10-10T15:12:13.456Z,2.38
2022-10-10T15:17:12.364Z,2.63
2022-10-10T15:22:11.192Z,3.15
2022-10-10T15:27:09.973Z,2.50
2022-10-10T15:32:10.002Z,2.33
2022-10-10T15:37:10.600Z,2.33
2022-10-10T15:42:14.967Z,6.75
2022-10-10T15:47:18.891Z,2.30
2022-10-10T15:52:18.809Z,1.80
2022-10-10T15:57:19.123Z,2.70
2022-10-10T16:02:19.964Z,2.50
2022-10-10T16:07:29.889Z,3.72
2022-10-10T16:12:29.339Z,2.45
2022-10-10T16:17:29.453Z,2.25
2022-10-10T16:22:28.202Z,2.00
2022-10-10T16:27:28.486Z,2.50
2022-10-10T16:32:27.256Z,2.58
2022-10-10T16:37:27.432Z,2.08
2022-10-10T16:42:26.195Z,2.47
2022-10-10T16:47:24.965Z,3.53
2022-10-10T16:52:23.840Z,2.92
2022-10-10T16:57:24.189Z,4.18
2022-10-10T17:02:24.638Z,3.00
2022-10-10T17:07:23.360Z,3.88
2022-10-10T17:12:23.596Z,2.97
2022-10-10T17:17:22.705Z,3.35
2022-10-10T17:22:21.449Z,2.63
2022-10-10T17:27:20.536Z,3.45
2022-10-10T17:32:21.219Z,3.65
2022-10-10T17:37:23.223Z,3.33
2022-10-10T17:42:21.996Z,2.92
2022-10-10T17:47:22.159Z,2.97
2022-10-10T17:52:21.484Z,2.65
2022-10-10T17:57:21.017Z,2.83
2022-10-10T18:02:21.329Z,2.65
2022-10-10T18:07:20.046Z,3.28
2022-10-10T18:12:21.699Z,3.38
2022-10-10T18:17:26.439Z,3.05
2022-10-10T18:22:25.347Z,3.03
2022-10-10T18:27:24.164Z,4.47
2022-10-10T18:32:24.935Z,3.20
2022-10-10T18:37:25.152Z,3.00
2022-10-10T18:42:23.914Z,3.25
2022-10-10T18:47:25.996Z,3.38
2022-10-10T18:52:25.823Z,4.53
2022-10-10T18:57:24.568Z,3.38
2022-10-10T19:02:25.441Z,3.25
2022-10-10T19:07:27.297Z,2.95
2022-10-10T19:12:29.189Z,3.00
2022-10-10T19:17:32.176Z,3.53
2022-10-10T19:22:30.909Z,3.35
2022-10-10T19:27:31.063Z,3.67
2022-10-10T19:32:31.658Z,2.90
2022-10-10T19:37:31.556Z,2.88
2022-10-10T19:42:32.009Z,2.78
2022-10-10T19:47:33.737Z,2.70
2022-10-10T19:52:33.449Z,2.85
2022-10-10T19:57:35.363Z,3.65
2022-10-10T20:02:37.008Z,3.23
2022-10-10T20:07:38.169Z,2.83
2022-10-10T20:12:38.355Z,2.80
2022-10-10T20:17:39.484Z,2.70
2022-10-10T20:22:38.218Z,2.72
2022-10-10T20:27:39.162Z,3.28
2022-10-10T20:32:42.273Z,2.83
2022-10-10T20:37:41.001Z,2.83
2022-10-10T20:42:42.354Z,2.72
2022-10-10T20:47:46.021Z,2.80
2022-10-10T20:52:48.782Z,3.30
2022-10-10T20:57:47.470Z,2.65
2022-10-10T21:02:47.721Z,2.63
2022-10-10T21:07:47.047Z,2.88
2022-10-10T21:12:45.938Z,2.83
2022-10-10T21:17:44.684Z,2.47
2022-10-10T21:22:45.230Z,2.63
2022-10-10T21:27:43.964Z,3.08
2022-10-10T21:32:42.652Z,3.65
2022-10-10T21:37:41.392Z,3.83
2022-10-10T21:42:41.645Z,2.88
2022-10-10T21:47:43.389Z,3.05
2022-10-10T21:52:42.074Z,3.03
2022-10-10T21:57:42.150Z,3.60
2022-10-10T22:02:40.910Z,3.20
2022-10-10T22:07:40.118Z,3.47
2022-10-10T22:12:38.887Z,3.35
2022-10-10T22:17:39.742Z,2.95
2022-10-10T22:22:39.206Z,2.45
2022-10-10T22:27:38.265Z,3.10
2022-10-10T22:32:38.455Z,3.20
2022-10-10T22:37:37.459Z,3.17
2022-10-10T22:42:36.252Z,3.30
2022-10-10T22:47:34.966Z,3.25
2022-10-10T22:52:35.151Z,3.28
2022-10-10T22:57:37.290Z,2.83
2022-10-10T23:02:36.006Z,3.45
2022-10-10T23:07:36.697Z,3.35
2022-10-10T23:12:35.435Z,3.40
2022-10-10T23:17:34.915Z,3.10
2022-10-10T23:22:35.008Z,3.00
2022-10-10T23:27:33.705Z,2.80
2022-10-10T23:32:32.459Z,3.10
2022-10-10T23:37:31.145Z,3.63
2022-10-10T23:42:31.272Z,3.10
2022-10-10T23:47:30.015Z,3.00
2022-10-10T23:52:28.749Z,4.05
2022-10-10T23:57:27.555Z,3.22
